createdAt,value
2019-05-15T00:02:10.797Z,2.43
2019-05-15T00:04:40.546Z,2.53
2019-05-15T00:07:09.908Z,2.40
2019-05-15T00:09:41.719Z,2.30
2019-05-15T00:12:10.218Z,2.43
2019-05-15T00:14:39.517Z,2.50
2019-05-15T00:17:10.062Z,2.77
2019-05-15T00:19:40.078Z,2.90
2019-05-15T00:22:09.334Z,2.17
2019-05-15T00:24:38.614Z,2.87
2019-05-15T00:27:08.236Z,2.60
2019-05-15T00:29:38.358Z,3.00
2019-05-15T00:32:09.200Z,2.80
2019-05-15T00:34:38.603Z,2.90
2019-05-15T00:37:09.051Z,2.57
2019-05-15T00:39:39.626Z,2.70
2019-05-15T00:42:08.896Z,2.80
2019-05-15T00:44:38.709Z,2.90
2019-05-15T00:47:10.429Z,2.73
2019-05-15T00:49:39.173Z,2.97
2019-05-15T00:52:12.133Z,2.27
2019-05-15T00:54:40.540Z,2.60
2019-05-15T00:57:09.834Z,2.67
2019-05-15T00:59:39.143Z,3.00
2019-05-15T01:02:08.775Z,2.47
2019-05-15T01:04:38.897Z,2.50
2019-05-15T01:07:08.497Z,2.43
2019-05-15T01:09:38.472Z,2.60
2019-05-15T01:12:09.096Z,2.47
2019-05-15T01:14:38.696Z,2.30
2019-05-15T01:17:09.080Z,2.30
2019-05-15T01:19:38.490Z,2.20
2019-05-15T01:22:08.754Z,2.30
2019-05-15T01:24:38.885Z,2.47
2019-05-15T01:27:09.101Z,2.00
2019-05-15T01:29:44.727Z,2.63
2019-05-15T01:32:09.506Z,2.13
2019-05-15T01:34:38.758Z,2.73
2019-05-15T01:37:08.537Z,2.67
2019-05-15T01:39:38.593Z,2.57
2019-05-15T01:42:18.438Z,2.47
2019-05-15T01:44:48.443Z,2.47
2019-05-15T01:47:18.980Z,2.77
2019-05-15T01:49:49.852Z,2.70
2019-05-15T01:52:20.085Z,2.63
2019-05-15T01:54:49.379Z,2.30
2019-05-15T01:57:19.047Z,2.20
2019-05-15T01:59:57.198Z,2.30
2019-05-15T02:02:19.381Z,2.43
2019-05-15T02:04:48.822Z,2.40
2019-05-15T02:07:18.737Z,2.57
2019-05-15T02:09:49.201Z,2.47
2019-05-15T02:12:19.101Z,2.37
2019-05-15T02:14:48.732Z,2.37
2019-05-15T02:17:18.984Z,1.70
2019-05-15T02:19:48.618Z,2.30
2019-05-15T02:22:18.955Z,2.20
2019-05-15T02:24:48.375Z,1.87
2019-05-15T02:27:19.142Z,1.87
2019-05-15T02:29:49.353Z,1.80
2019-05-15T02:32:19.387Z,2.30
2019-05-15T02:34:50.092Z,2.00
2019-05-15T02:37:19.623Z,1.67
2019-05-15T02:39:49.561Z,1.67
2019-05-15T02:42:19.330Z,1.77
2019-05-15T02:44:49.979Z,2.23
2019-05-15T02:47:20.064Z,2.33
2019-05-15T02:49:49.509Z,1.90
2019-05-15T02:52:19.966Z,1.63
2019-05-15T02:54:50.020Z,1.90
2019-05-15T02:57:19.534Z,1.87
2019-05-15T02:59:49.810Z,1.90
2019-05-15T03:02:19.565Z,1.77
2019-05-15T03:04:49.234Z,1.80
2019-05-15T03:07:19.398Z,1.70
2019-05-15T03:09:49.675Z,1.60
2019-05-15T03:12:19.692Z,1.90
2019-05-15T03:14:49.363Z,2.33
2019-05-15T03:17:19.146Z,1.90
2019-05-15T03:19:49.670Z,1.70
2019-05-15T03:22:19.748Z,1.70
2019-05-15T03:24:50.217Z,2.10
2019-05-15T03:27:20.136Z,1.90
2019-05-15T03:29:49.600Z,2.13
2019-05-15T03:32:32.287Z,1.80
2019-05-15T03:34:56.163Z,1.77
2019-05-15T03:37:22.845Z,1.60
2019-05-15T03:39:52.404Z,1.80
2019-05-15T03:42:21.862Z,1.60
2019-05-15T03:44:59.604Z,1.50
2019-05-15T03:47:30.150Z,1.50
2019-05-15T03:50:00.237Z,1.60
2019-05-15T03:52:29.609Z,1.30
2019-05-15T03:54:58.975Z,1.60
2019-05-15T03:57:30.384Z,1.80
2019-05-15T03:59:59.747Z,1.43
2019-05-15T04:02:29.149Z,1.90
2019-05-15T04:05:01.530Z,1.60
2019-05-15T04:07:29.513Z,1.63
2019-05-15T04:09:58.948Z,1.80
2019-05-15T04:12:29.150Z,1.50
2019-05-15T04:14:59.636Z,1.57
2019-05-15T04:17:29.647Z,1.70
2019-05-15T04:19:59.132Z,1.40
2019-05-15T04:22:29.263Z,1.30
2019-05-15T04:24:59.640Z,1.40
2019-05-15T04:27:30.470Z,1.50
2019-05-15T04:29:59.721Z,1.77
2019-05-15T04:32:29.190Z,1.60
2019-05-15T04:35:00.341Z,1.80
2019-05-15T04:37:31.128Z,1.73
2019-05-15T04:40:00.461Z,1.90
2019-05-15T04:42:30.140Z,1.87
2019-05-15T04:44:59.771Z,1.33
2019-05-15T04:47:30.218Z,1.83
2019-05-15T04:49:59.838Z,1.77
2019-05-15T04:52:30.509Z,1.43
2019-05-15T04:55:00.094Z,1.60
2019-05-15T04:57:34.532Z,1.90
2019-05-15T05:00:09.195Z,1.57
2019-05-15T05:02:39.933Z,1.90
2019-05-15T05:05:10.847Z,1.70
2019-05-15T05:07:40.864Z,1.90
2019-05-15T05:10:11.240Z,1.40
2019-05-15T05:12:42.619Z,1.60
2019-05-15T05:15:12.639Z,1.53
2019-05-15T05:17:43.319Z,1.30
2019-05-15T05:20:14.468Z,1.60
2019-05-15T05:22:48.341Z,1.50
2019-05-15T05:25:18.285Z,1.03
2019-05-15T05:27:48.685Z,1.20
2019-05-15T05:30:19.077Z,1.33
2019-05-15T05:32:48.852Z,1.80
2019-05-15T05:35:19.905Z,1.40
2019-05-15T05:37:49.425Z,1.20
2019-05-15T05:40:19.033Z,1.33
2019-05-15T05:42:48.850Z,1.50
2019-05-15T05:45:18.708Z,1.10
2019-05-15T05:48:01.226Z,1.13
2019-05-15T05:50:38.776Z,1.10
2019-05-15T05:53:08.842Z,1.33
2019-05-15T05:55:38.783Z,1.27
2019-05-15T05:58:09.225Z,1.23
2019-05-15T06:00:41.354Z,1.30
2019-05-15T06:03:12.024Z,1.10
2019-05-15T06:05:42.033Z,1.23
2019-05-15T06:08:12.110Z,1.23
2019-05-15T06:10:41.949Z,1.13
2019-05-15T06:13:11.303Z,1.30
2019-05-15T06:15:40.619Z,1.37
2019-05-15T06:18:09.893Z,1.00
2019-05-15T06:20:39.570Z,0.93
2019-05-15T06:23:09.006Z,1.33
2019-05-15T06:25:39.056Z,1.00
2019-05-15T06:28:09.145Z,1.10
2019-05-15T06:30:39.942Z,1.00
2019-05-15T06:33:13.258Z,1.37
2019-05-15T06:35:40.261Z,1.10
2019-05-15T06:38:09.669Z,1.30
2019-05-15T06:40:39.613Z,1.00
2019-05-15T06:43:09.045Z,0.97
2019-05-15T06:45:38.343Z,1.10
2019-05-15T06:48:09.412Z,1.30
2019-05-15T06:50:40.096Z,1.03
2019-05-15T06:53:10.832Z,1.10
2019-05-15T06:55:40.319Z,1.07
2019-05-15T06:58:10.626Z,1.03
2019-05-15T07:00:39.883Z,0.80
2019-05-15T07:03:23.762Z,0.90
2019-05-15T07:05:41.377Z,0.90
2019-05-15T07:08:10.636Z,0.80
2019-05-15T07:10:39.946Z,0.80
2019-05-15T07:13:09.229Z,0.70
2019-05-15T07:15:38.646Z,0.80
2019-05-15T07:18:08.771Z,0.60
2019-05-15T07:20:39.121Z,0.70
2019-05-15T07:23:09.010Z,0.80
2019-05-15T07:25:38.997Z,0.90
2019-05-15T07:28:08.938Z,0.80
2019-05-15T07:30:41.134Z,0.90
2019-05-15T07:33:09.312Z,0.90
2019-05-15T07:35:38.697Z,0.80
2019-05-15T07:38:08.147Z,1.10
2019-05-15T07:40:38.566Z,1.13
2019-05-15T07:43:09.302Z,1.30
2019-05-15T07:45:43.769Z,1.07
2019-05-15T07:48:09.884Z,0.80
2019-05-15T07:50:43.448Z,1.00
2019-05-15T07:53:12.757Z,0.90
2019-05-15T07:55:42.015Z,0.77
2019-05-15T07:58:12.420Z,0.80
2019-05-15T08:00:41.750Z,0.80
2019-05-15T08:03:11.006Z,0.70
2019-05-15T08:05:55.039Z,0.80
2019-05-15T08:08:12.455Z,0.97
2019-05-15T08:10:41.737Z,0.90
2019-05-15T08:13:11.023Z,0.80
2019-05-15T08:15:40.334Z,0.70
2019-05-15T08:18:12.814Z,0.90
2019-05-15T08:20:42.122Z,0.80
2019-05-15T08:23:11.410Z,0.80
2019-05-15T08:25:40.762Z,0.93
2019-05-15T08:28:10.040Z,0.80
2019-05-15T08:30:39.371Z,1.03
2019-05-15T08:33:08.661Z,0.90
2019-05-15T08:35:38.631Z,1.10
2019-05-15T08:38:09.242Z,1.10
2019-05-15T08:40:41.088Z,1.30
2019-05-15T08:43:11.530Z,1.00
2019-05-15T08:45:41.000Z,1.30
2019-05-15T08:48:10.364Z,1.23
2019-05-15T08:50:39.693Z,1.73
2019-05-15T08:53:08.999Z,1.40
2019-05-15T08:55:39.101Z,1.40
2019-05-15T08:58:13.749Z,1.30
2019-05-15T09:00:42.033Z,1.43
2019-05-15T09:03:10.740Z,1.10
2019-05-15T09:05:40.182Z,1.00
2019-05-15T09:08:09.486Z,1.23
2019-05-15T09:10:40.213Z,0.97
2019-05-15T09:13:11.297Z,0.80
2019-05-15T09:15:40.619Z,0.80
2019-05-15T09:18:16.002Z,0.83
2019-05-15T09:20:40.939Z,0.90
2019-05-15T09:23:10.268Z,1.37
2019-05-15T09:25:39.595Z,0.90
2019-05-15T09:28:08.857Z,0.90
2019-05-15T09:30:39.145Z,0.80
2019-05-15T09:33:08.783Z,0.80
2019-05-15T09:35:39.373Z,0.90
2019-05-15T09:38:08.826Z,0.90
2019-05-15T09:40:46.149Z,0.90
2019-05-15T09:43:11.347Z,0.97
2019-05-15T09:45:42.351Z,0.83
2019-05-15T09:48:14.632Z,1.17
2019-05-15T09:50:42.694Z,0.80
2019-05-15T09:53:28.410Z,0.93
2019-05-15T09:55:56.886Z,0.80
2019-05-15T09:58:26.166Z,0.80
2019-05-15T10:00:55.464Z,0.80
2019-05-15T10:03:24.744Z,0.80
2019-05-15T10:05:54.076Z,0.80
2019-05-15T10:08:23.367Z,0.73
2019-05-15T10:10:54.121Z,1.00
2019-05-15T10:13:23.436Z,1.07
2019-05-15T10:15:52.737Z,1.00
2019-05-15T10:18:22.008Z,0.90
2019-05-15T10:20:51.334Z,1.57
2019-05-15T10:23:20.640Z,0.90
2019-05-15T10:25:50.385Z,0.90
2019-05-15T10:28:19.965Z,0.80
2019-05-15T10:30:50.105Z,0.73
2019-05-15T10:33:20.466Z,0.80
2019-05-15T10:35:49.858Z,1.20
2019-05-15T10:38:19.542Z,0.90
2019-05-15T10:41:03.871Z,0.90
2019-05-15T10:43:20.971Z,0.97
2019-05-15T10:45:54.716Z,0.83
2019-05-15T10:48:22.649Z,0.80
2019-05-15T10:50:51.993Z,0.70
2019-05-15T10:53:22.381Z,0.87
2019-05-15T10:55:51.645Z,0.60
2019-05-15T10:58:22.230Z,0.83
2019-05-15T11:00:51.895Z,0.70
2019-05-15T11:03:21.209Z,0.90
2019-05-15T11:05:50.513Z,0.70
2019-05-15T11:08:19.821Z,0.80
2019-05-15T11:10:49.767Z,0.90
2019-05-15T11:13:20.475Z,0.77
2019-05-15T11:15:49.975Z,0.67
2019-05-15T11:18:21.075Z,0.77
2019-05-15T11:20:50.426Z,0.70
2019-05-15T11:23:20.413Z,0.70
2019-05-15T11:25:51.101Z,0.80
2019-05-15T11:28:20.388Z,0.80
2019-05-15T11:30:49.678Z,0.60
2019-05-15T11:33:19.420Z,0.70
2019-05-15T11:36:00.417Z,0.60
2019-05-15T11:38:21.437Z,0.63
2019-05-15T11:40:50.744Z,0.60
2019-05-15T11:43:20.069Z,0.70
2019-05-15T11:45:49.337Z,0.60
2019-05-15T11:48:20.972Z,0.70
2019-05-15T11:50:50.383Z,0.90
2019-05-15T11:53:19.686Z,0.80
2019-05-15T11:56:00.022Z,0.60
2019-05-15T11:58:29.406Z,0.80
2019-05-15T12:00:58.808Z,0.80
2019-05-15T12:03:29.116Z,0.73
2019-05-15T12:06:14.552Z,0.70
2019-05-15T12:08:29.839Z,0.50
2019-05-15T12:10:59.597Z,0.60
2019-05-15T12:13:28.924Z,0.50
2019-05-15T12:15:58.920Z,0.60
2019-05-15T12:18:28.693Z,0.60
2019-05-15T12:20:59.531Z,0.53
2019-05-15T12:23:29.458Z,0.60
2019-05-15T12:26:00.681Z,0.53
2019-05-15T12:28:30.039Z,0.50
2019-05-15T12:31:00.911Z,0.40
2019-05-15T12:33:30.174Z,0.50
2019-05-15T12:35:59.671Z,0.60
2019-05-15T12:38:29.251Z,0.50
2019-05-15T13:01:14.804Z,0.43
2019-05-15T13:03:38.286Z,0.50
2019-05-15T13:06:08.203Z,0.40
2019-05-15T13:08:38.524Z,0.37
2019-05-15T13:11:10.131Z,0.50
2019-05-15T13:13:39.120Z,0.50
2019-05-15T13:16:08.422Z,0.50
2019-05-15T13:18:38.776Z,0.47
2019-05-15T13:21:08.493Z,0.40
2019-05-15T13:23:39.594Z,0.40
2019-05-15T13:26:23.095Z,0.40
2019-05-15T13:28:39.906Z,0.50
2019-05-15T13:31:09.367Z,0.50
2019-05-15T13:33:39.841Z,0.60
2019-05-15T13:36:09.188Z,0.60
2019-05-15T13:38:38.480Z,0.60
2019-05-15T13:41:09.387Z,0.60
2019-05-15T13:43:38.834Z,0.70
2019-05-15T13:46:08.847Z,0.70
2019-05-15T13:48:38.675Z,0.60
2019-05-15T13:51:08.115Z,0.53
2019-05-15T13:53:38.558Z,0.50
2019-05-15T13:56:08.426Z,0.40
2019-05-15T13:58:38.862Z,0.50
2019-05-15T14:01:09.414Z,0.60
2019-05-15T14:03:39.136Z,0.60
2019-05-15T14:06:09.425Z,0.50
2019-05-15T14:08:39.266Z,0.50
2019-05-15T14:11:08.831Z,0.40
2019-05-15T14:13:39.245Z,0.50
2019-05-15T14:16:09.581Z,0.50
2019-05-15T14:18:39.216Z,0.60
2019-05-15T14:21:09.040Z,0.60
2019-05-15T14:23:38.683Z,0.50
2019-05-15T14:26:18.056Z,0.50
2019-05-15T14:28:39.078Z,0.50
2019-05-15T14:31:09.711Z,0.50
2019-05-15T14:33:39.353Z,0.60
2019-05-15T14:36:08.658Z,0.53
2019-05-15T14:38:38.045Z,0.60
2019-05-15T14:41:08.815Z,0.90
2019-05-15T14:43:38.459Z,0.93
2019-05-15T14:46:08.310Z,0.80
2019-05-15T14:48:40.602Z,0.70
2019-05-15T14:51:09.879Z,0.60
2019-05-15T14:53:39.327Z,0.70
2019-05-15T14:56:11.510Z,1.00
2019-05-15T14:58:40.863Z,0.80
2019-05-15T15:01:12.736Z,0.90
2019-05-15T15:03:42.516Z,0.80
2019-05-15T15:06:12.050Z,1.10
2019-05-15T15:08:41.361Z,1.10
2019-05-15T15:11:10.904Z,0.90
2019-05-15T15:13:40.225Z,1.10
2019-05-15T15:16:09.601Z,1.10
2019-05-15T15:18:38.876Z,1.30
2019-05-15T15:21:22.137Z,2.13
2019-05-15T15:23:49.694Z,3.70
2019-05-15T15:26:19.265Z,1.00
2019-05-15T15:28:49.044Z,1.20
2019-05-15T15:31:19.176Z,1.30
2019-05-15T15:33:48.727Z,1.10
2019-05-15T15:36:18.035Z,1.00
2019-05-15T15:38:48.443Z,1.10
2019-05-15T15:41:17.956Z,1.13
2019-05-15T15:43:48.465Z,1.00
2019-05-15T15:46:19.497Z,0.97
2019-05-15T15:48:49.004Z,0.90
2019-05-15T15:51:18.417Z,1.00
2019-05-15T15:53:48.152Z,2.00
2019-05-15T15:56:18.506Z,0.90
2019-05-15T15:58:48.811Z,3.40
2019-05-15T16:01:18.691Z,0.90
2019-05-15T16:03:48.536Z,1.00
2019-05-15T16:06:18.751Z,1.13
2019-05-15T16:08:55.193Z,1.23
2019-05-15T16:11:19.520Z,1.00
2019-05-15T16:13:49.759Z,1.30
2019-05-15T16:16:19.658Z,1.37
2019-05-15T16:18:49.279Z,1.20
2019-05-15T16:21:19.335Z,1.00
2019-05-15T16:23:48.869Z,1.17
2019-05-15T16:26:19.533Z,1.03
2019-05-15T16:28:49.136Z,1.20
2019-05-15T16:31:18.722Z,1.03
2019-05-15T16:33:48.212Z,1.00
2019-05-15T16:36:18.412Z,1.10
2019-05-15T16:38:48.330Z,1.13
2019-05-15T16:41:18.441Z,1.23
2019-05-15T16:43:48.511Z,1.00
2019-05-15T16:46:19.258Z,1.10
2019-05-15T16:48:49.518Z,1.50
2019-05-15T16:51:19.077Z,1.10
2019-05-15T16:53:49.835Z,1.30
2019-05-15T16:56:19.333Z,1.33
2019-05-15T16:58:48.989Z,1.30
2019-05-15T17:01:18.821Z,1.37
2019-05-15T17:03:48.555Z,1.40
2019-05-15T17:06:18.743Z,1.50
2019-05-15T17:08:48.732Z,1.60
2019-05-15T17:11:19.868Z,1.70
2019-05-15T17:13:50.909Z,2.03
2019-05-15T17:16:20.217Z,1.70
2019-05-15T17:18:49.542Z,1.77
2019-05-15T17:21:19.301Z,2.00
2019-05-15T17:23:50.799Z,1.77
2019-05-15T17:26:20.076Z,1.57
2019-05-15T17:28:49.461Z,3.43
2019-05-15T17:31:18.788Z,3.20
2019-05-15T17:33:48.955Z,3.50
2019-05-15T17:36:18.683Z,2.77
2019-05-15T17:38:48.708Z,2.50
2019-05-15T17:41:18.257Z,2.90
2019-05-15T17:43:48.583Z,2.03
2019-05-15T17:46:18.010Z,2.10
2019-05-15T17:48:54.017Z,2.13
2019-05-15T17:51:18.428Z,3.00
2019-05-15T17:53:48.869Z,2.50
2019-05-15T17:56:18.216Z,2.57
2019-05-15T17:58:48.691Z,2.00
2019-05-15T18:01:19.218Z,2.33
2019-05-15T18:03:48.690Z,2.00
2019-05-15T18:06:18.364Z,2.30
2019-05-15T18:08:48.549Z,2.37
2019-05-15T18:11:18.709Z,4.97
2019-05-15T18:13:48.714Z,2.77
2019-05-15T18:16:18.391Z,2.17
2019-05-15T18:18:47.969Z,2.60
2019-05-15T18:21:18.918Z,2.13
2019-05-15T18:23:48.733Z,1.97
2019-05-15T18:26:18.414Z,1.97
2019-05-15T18:28:48.905Z,2.13
2019-05-15T18:31:18.364Z,1.90
2019-05-15T18:33:54.633Z,3.13
2019-05-15T18:36:19.804Z,2.17
2019-05-15T18:38:49.143Z,2.90
2019-05-15T18:41:18.583Z,2.27
2019-05-15T18:43:48.469Z,2.17
2019-05-15T18:46:18.372Z,2.17
2019-05-15T18:48:48.703Z,2.07
2019-05-15T18:51:18.024Z,1.80
2019-05-15T18:53:48.330Z,2.40
2019-05-15T18:56:18.699Z,1.93
2019-05-15T18:58:48.592Z,3.07
2019-05-15T19:01:18.009Z,2.00
2019-05-15T19:03:48.473Z,2.17
2019-05-15T19:06:18.623Z,3.03
2019-05-15T19:08:48.053Z,2.10
2019-05-15T19:11:18.403Z,2.10
2019-05-15T19:13:48.218Z,2.23
2019-05-15T19:16:17.626Z,2.10
2019-05-15T19:18:48.052Z,2.37
2019-05-15T19:21:17.351Z,2.30
2019-05-15T19:23:47.870Z,2.17
2019-05-15T19:26:18.249Z,5.67
2019-05-15T19:28:48.797Z,4.07
2019-05-15T19:31:26.797Z,2.23
2019-05-15T19:33:51.329Z,2.40
2019-05-15T19:36:20.631Z,2.47
2019-05-15T19:38:50.159Z,7.23
2019-05-15T19:41:19.601Z,2.50
2019-05-15T19:43:49.134Z,5.43
2019-05-15T19:46:19.738Z,5.20
2019-05-15T19:48:50.837Z,3.40
2019-05-15T19:51:20.176Z,2.87
2019-05-15T19:53:50.462Z,2.40
2019-05-15T19:56:19.811Z,1.90
2019-05-15T19:58:49.072Z,2.07
2019-05-15T20:01:18.932Z,2.63
2019-05-15T20:03:52.998Z,2.80
2019-05-15T20:06:20.657Z,2.03
2019-05-15T20:08:54.533Z,2.13
2019-05-15T20:11:23.968Z,2.50
2019-05-15T20:13:53.452Z,2.90
2019-05-15T20:16:22.806Z,2.43
2019-05-15T20:18:52.127Z,3.37
2019-05-15T20:21:23.287Z,2.30
2019-05-15T20:23:53.614Z,3.40
2019-05-15T20:26:22.876Z,3.20
2019-05-15T20:28:52.220Z,2.47
2019-05-15T20:31:21.646Z,2.50
2019-05-15T20:34:02.455Z,1.77
2019-05-15T20:36:23.440Z,2.30
2019-05-15T20:38:52.826Z,1.80
2019-05-15T20:41:22.643Z,2.00
2019-05-15T20:43:52.082Z,2.30
2019-05-15T20:46:21.496Z,1.90
2019-05-15T20:48:50.936Z,1.83
2019-05-15T20:51:20.427Z,2.33
2019-05-15T20:53:49.825Z,2.23
2019-05-15T20:56:19.265Z,2.20
2019-05-15T20:58:49.689Z,2.27
2019-05-15T21:01:19.037Z,2.97
2019-05-15T21:03:50.855Z,2.37
2019-05-15T21:06:19.417Z,1.70
2019-05-15T21:08:48.948Z,1.67
2019-05-15T21:11:18.570Z,1.77
2019-05-15T21:13:49.178Z,1.80
2019-05-15T21:16:18.949Z,1.73
2019-05-15T21:18:48.427Z,1.70
2019-05-15T21:21:19.154Z,2.07
2019-05-15T21:23:49.261Z,2.73
2019-05-15T21:26:18.939Z,2.43
2019-05-15T21:28:48.455Z,2.77
2019-05-15T21:31:21.872Z,2.60
2019-05-15T21:33:50.438Z,3.33
2019-05-15T21:36:20.220Z,3.57
2019-05-15T21:38:49.518Z,2.83
2019-05-15T21:41:19.022Z,3.37
2019-05-15T21:43:50.381Z,3.63
2019-05-15T21:46:19.653Z,3.90
2019-05-15T21:48:48.938Z,4.03
2019-05-15T21:51:18.838Z,3.93
2019-05-15T21:53:48.343Z,4.50
2019-05-15T21:56:18.823Z,4.50
2019-05-15T21:58:48.417Z,4.27
2019-05-15T22:01:19.719Z,3.63
2019-05-15T22:03:49.284Z,3.70
2019-05-15T22:06:18.779Z,4.13
2019-05-15T22:08:48.079Z,3.80
2019-05-15T22:11:18.667Z,4.73
2019-05-15T22:13:48.643Z,4.40
2019-05-15T22:16:19.544Z,4.17
2019-05-15T22:18:48.825Z,3.93
2019-05-15T22:21:18.762Z,3.57
2019-05-15T22:23:48.081Z,4.07
2019-05-15T22:26:18.450Z,4.13
2019-05-15T22:28:48.999Z,3.33
2019-05-15T22:31:19.635Z,4.07
2019-05-15T22:33:49.123Z,4.33
2019-05-15T22:36:18.947Z,3.63
2019-05-15T22:38:50.437Z,3.70
2019-05-15T22:41:19.836Z,4.57
2019-05-15T22:43:49.101Z,3.93
2019-05-15T22:46:18.723Z,3.60
2019-05-15T22:48:48.648Z,4.03
2019-05-15T22:51:18.583Z,4.33
2019-05-15T22:53:49.305Z,4.73
2019-05-15T22:56:19.697Z,3.93
2019-05-15T22:58:49.034Z,4.57
2019-05-15T23:01:18.969Z,3.93
2019-05-15T23:03:48.348Z,4.23
2019-05-15T23:06:18.055Z,4.60
2019-05-15T23:08:48.869Z,3.80
2019-05-15T23:11:18.538Z,4.67
2019-05-15T23:13:48.414Z,4.23
2019-05-15T23:16:18.346Z,3.53
2019-05-15T23:18:48.456Z,3.67
2019-05-15T23:21:18.643Z,3.73
2019-05-15T23:23:48.793Z,4.60
2019-05-15T23:26:18.267Z,4.00
2019-05-15T23:28:48.126Z,4.50
2019-05-15T23:31:18.911Z,4.00
2019-05-15T23:33:48.359Z,4.03
2019-05-15T23:36:18.045Z,4.30
2019-05-15T23:38:48.015Z,3.77
2019-05-15T23:41:18.955Z,3.83
2019-05-15T23:43:48.959Z,4.10
2019-05-15T23:46:18.574Z,3.47
2019-05-15T23:48:48.457Z,4.10
2019-05-15T23:51:18.932Z,3.97
2019-05-15T23:53:48.560Z,3.80
2019-05-15T23:56:18.916Z,3.50
2019-05-15T23:58:48.783Z,4.53
